createdAt,value
2022-08-27T00:03:11.369Z,15.32
2022-08-27T00:08:14.793Z,7.35
2022-08-27T00:13:17.373Z,10.02
2022-08-27T00:18:22.797Z,10.73
2022-08-27T00:23:25.459Z,11.45
2022-08-27T00:28:30.068Z,10.55
2022-08-27T00:33:32.769Z,11.90
2022-08-27T00:38:35.604Z,11.52
2022-08-27T00:44:04.133Z,10.88
2022-08-27T00:49:18.422Z,10.13
2022-08-27T00:54:21.775Z,16.92
2022-08-27T00:59:29.366Z,10.77
2022-08-27T01:04:34.951Z,8.50
2022-08-27T01:09:39.037Z,10.55
2022-08-27T01:14:42.213Z,10.10
2022-08-27T01:19:49.507Z,9.32
2022-08-27T01:24:55.322Z,13.27
2022-08-27T01:29:58.132Z,10.32
2022-08-27T01:35:01.982Z,18.17
2022-08-27T01:40:05.169Z,13.63
2022-08-27T01:45:09.619Z,11.50
2022-08-27T01:50:18.705Z,17.48
2022-08-27T01:55:25.177Z,12.32
2022-08-27T02:00:33.150Z,11.52
2022-08-27T02:05:39.329Z,9.85
2022-08-27T02:10:48.962Z,15.70
2022-08-27T02:15:51.433Z,9.32
2022-08-27T02:20:54.187Z,10.32
2022-08-27T02:25:56.680Z,11.38
2022-08-27T02:30:59.394Z,19.98
2022-08-27T02:36:01.867Z,12.45
2022-08-27T02:41:05.230Z,10.10
2022-08-27T02:46:07.775Z,11.85
2022-08-27T02:51:10.376Z,12.23
2022-08-27T02:56:13.021Z,16.63
2022-08-27T03:01:16.064Z,13.88
2022-08-27T03:06:18.677Z,15.38
2022-08-27T03:11:25.854Z,18.35
2022-08-27T03:16:28.457Z,13.85
2022-08-27T03:21:30.963Z,14.40
2022-08-27T03:26:34.599Z,13.93
2022-08-27T03:31:38.000Z,14.90
2022-08-27T03:36:40.481Z,12.68
2022-08-27T03:41:54.663Z,12.05
2022-08-27T03:46:58.323Z,17.52
2022-08-27T03:52:00.905Z,19.25
2022-08-27T03:57:03.783Z,17.90
2022-08-27T04:02:06.269Z,13.40
2022-08-27T04:07:10.721Z,14.90
2022-08-27T04:12:13.233Z,12.88
2022-08-27T04:17:16.409Z,13.27
2022-08-27T04:22:19.625Z,16.83
2022-08-27T04:27:22.844Z,12.52
2022-08-27T04:32:29.089Z,12.50
2022-08-27T04:37:33.368Z,16.40
2022-08-27T04:42:35.914Z,16.55
2022-08-27T04:47:38.512Z,14.48
2022-08-27T04:52:41.617Z,17.27
2022-08-27T04:57:44.134Z,11.82
2022-08-27T05:02:46.625Z,15.40
2022-08-27T05:07:49.299Z,24.33
2022-08-27T05:12:51.767Z,17.70
2022-08-27T05:17:54.536Z,19.95
2022-08-27T05:22:57.995Z,21.42
2022-08-27T05:28:00.670Z,16.55
2022-08-27T05:33:03.540Z,16.50
2022-08-27T05:38:06.142Z,11.43
2022-08-27T05:43:08.798Z,13.52
2022-08-27T05:48:12.269Z,13.82
2022-08-27T05:53:14.935Z,13.15
2022-08-27T05:58:35.895Z,15.30
2022-08-27T06:03:39.096Z,12.35
2022-08-27T06:08:42.132Z,17.65
2022-08-27T06:13:44.614Z,13.68
2022-08-27T06:18:48.948Z,11.07
2022-08-27T06:23:51.569Z,11.77
2022-08-27T06:28:54.356Z,13.13
2022-08-27T06:34:03.058Z,23.20
2022-08-27T06:39:13.982Z,19.10
2022-08-27T06:44:16.608Z,15.73
2022-08-27T06:49:19.568Z,14.52
2022-08-27T06:54:22.211Z,16.27
2022-08-27T06:59:25.317Z,12.55
2022-08-27T07:04:32.040Z,18.98
2022-08-27T07:09:35.405Z,15.63
2022-08-27T07:14:38.507Z,21.35
2022-08-27T07:19:41.526Z,15.38
2022-08-27T07:24:44.254Z,15.82
2022-08-27T07:29:46.856Z,14.20
2022-08-27T07:34:50.024Z,12.95
2022-08-27T07:39:52.686Z,14.32
2022-08-27T07:44:55.306Z,15.95
2022-08-27T07:49:59.243Z,17.73
2022-08-27T07:55:01.746Z,10.43
2022-08-27T08:00:06.685Z,10.57
2022-08-27T08:05:16.913Z,14.48
2022-08-27T08:10:23.616Z,9.25
2022-08-27T08:15:26.265Z,9.32
2022-08-27T08:20:54.309Z,12.98
2022-08-27T08:25:51.482Z,11.23
2022-08-27T08:30:54.981Z,8.23
2022-08-27T08:36:12.850Z,9.60
2022-08-27T08:41:41.622Z,10.10
2022-08-27T08:46:51.331Z,12.60
2022-08-27T08:51:56.533Z,7.30
2022-08-27T08:57:21.096Z,9.75
2022-08-27T09:02:24.020Z,8.57
2022-08-27T09:08:31.813Z,9.75
2022-08-27T09:13:55.720Z,12.88
2022-08-27T09:18:58.303Z,12.85
2022-08-27T09:24:15.499Z,12.80
2022-08-27T09:29:20.465Z,10.27
2022-08-27T09:34:23.847Z,8.88
2022-08-27T09:39:49.225Z,20.52
2022-08-27T09:44:55.847Z,10.20
2022-08-27T09:50:06.827Z,8.15
2022-08-27T09:55:10.348Z,5.93
2022-08-27T10:00:17.941Z,10.00
2022-08-27T10:05:34.024Z,9.25
2022-08-27T10:10:57.124Z,6.97
2022-08-27T10:16:21.167Z,12.70
2022-08-27T10:21:33.396Z,9.25
2022-08-27T10:27:05.465Z,6.72
2022-08-27T10:32:18.608Z,8.80
2022-08-27T10:37:43.567Z,8.73
2022-08-27T10:43:25.690Z,10.18
2022-08-27T10:48:44.944Z,20.27
2022-08-27T10:53:47.382Z,7.95
2022-08-27T10:58:58.756Z,8.32
2022-08-27T11:04:13.106Z,5.75
2022-08-27T11:09:27.107Z,6.15
2022-08-27T11:14:32.408Z,6.50
2022-08-27T11:19:56.164Z,8.85
2022-08-27T11:25:28.544Z,7.35
2022-08-27T11:30:49.320Z,8.05
2022-08-27T11:36:09.724Z,7.63
2022-08-27T11:41:44.810Z,7.75
2022-08-27T11:46:51.105Z,5.93
2022-08-27T11:51:59.224Z,5.88
2022-08-27T11:57:01.754Z,6.43
2022-08-27T12:02:26.262Z,7.22
2022-08-27T12:07:31.997Z,8.77
2022-08-27T12:12:43.713Z,7.18
2022-08-27T12:18:14.547Z,9.73
2022-08-27T12:23:40.392Z,7.15
2022-08-27T12:28:43.894Z,7.35
2022-08-27T12:33:48.201Z,9.13
2022-08-27T12:38:53.831Z,8.15
2022-08-27T12:44:11.392Z,7.90
2022-08-27T12:49:37.833Z,7.88
2022-08-27T12:54:46.867Z,9.25
2022-08-27T13:00:19.781Z,9.90
2022-08-27T13:05:40.287Z,7.00
2022-08-27T13:10:42.902Z,10.52
2022-08-27T13:15:51.364Z,6.65
2022-08-27T13:21:02.792Z,9.05
2022-08-27T13:26:10.457Z,7.45
2022-08-27T13:31:13.157Z,10.43
2022-08-27T13:36:31.030Z,12.57
2022-08-27T13:41:38.718Z,8.95
2022-08-27T13:46:47.878Z,6.32
2022-08-27T13:51:59.511Z,7.40
2022-08-27T13:57:08.948Z,6.82
2022-08-27T14:02:11.838Z,6.72
2022-08-27T14:07:20.537Z,9.50
2022-08-27T14:12:33.184Z,15.10
2022-08-27T14:17:38.446Z,10.43
2022-08-27T14:22:41.207Z,8.63
2022-08-27T14:27:54.491Z,8.27
2022-08-27T14:32:58.816Z,7.38
2022-08-27T14:38:30.396Z,8.30
2022-08-27T14:43:34.834Z,10.27
2022-08-27T14:48:37.819Z,8.38
2022-08-27T14:53:40.309Z,10.90
2022-08-27T14:58:42.890Z,10.77
2022-08-27T15:03:49.129Z,9.73
2022-08-27T15:08:52.292Z,12.03
2022-08-27T15:13:56.348Z,7.88
2022-08-27T15:19:00.632Z,11.90
2022-08-27T15:24:08.019Z,6.70
2022-08-27T15:29:10.847Z,8.35
2022-08-27T15:34:13.938Z,6.82
2022-08-27T15:39:16.768Z,7.90
2022-08-27T15:44:19.265Z,5.57
2022-08-27T15:49:21.969Z,7.63
2022-08-27T15:54:24.530Z,16.23
2022-08-27T15:59:27.757Z,6.97
2022-08-27T16:04:30.268Z,4.93
2022-08-27T16:09:32.839Z,6.70
2022-08-27T16:14:35.330Z,9.95
2022-08-27T16:19:39.178Z,7.88
2022-08-27T16:24:41.697Z,6.93
2022-08-27T16:29:44.227Z,8.55
2022-08-27T16:34:55.840Z,9.38
2022-08-27T16:39:58.743Z,6.70
2022-08-27T16:45:02.127Z,10.30
2022-08-27T16:50:26.257Z,5.28
2022-08-27T16:55:28.874Z,6.00
2022-08-27T17:00:32.418Z,7.35
2022-08-27T17:05:35.256Z,4.95
2022-08-27T17:10:46.475Z,5.03
2022-08-27T17:15:52.867Z,8.50
2022-08-27T17:20:56.451Z,8.47
2022-08-27T17:25:58.880Z,8.52
2022-08-27T17:31:02.606Z,15.23
2022-08-27T17:36:07.257Z,8.93
2022-08-27T17:41:13.487Z,7.97
2022-08-27T17:46:16.105Z,8.05
2022-08-27T17:51:20.272Z,11.35
2022-08-27T17:56:23.910Z,9.20
2022-08-27T18:01:29.817Z,10.60
2022-08-27T18:06:32.298Z,17.48
2022-08-27T18:11:35.113Z,11.77
2022-08-27T18:16:38.626Z,11.68
2022-08-27T18:21:46.224Z,10.82
2022-08-27T18:26:49.623Z,8.52
2022-08-27T18:31:52.098Z,20.75
2022-08-27T18:36:54.660Z,47.20
2022-08-27T18:41:57.263Z,29.92
2022-08-27T18:46:59.772Z,26.17
2022-08-27T18:52:02.440Z,48.00
2022-08-27T18:57:04.868Z,26.50
2022-08-27T19:02:08.612Z,24.60
2022-08-27T19:07:11.374Z,18.23
2022-08-27T19:12:14.873Z,10.73
2022-08-27T19:17:26.161Z,13.65
2022-08-27T19:22:30.793Z,17.75
2022-08-27T19:27:33.343Z,10.63
2022-08-27T19:32:35.821Z,8.82
2022-08-27T19:37:43.000Z,10.13
2022-08-27T19:42:45.679Z,9.43
2022-08-27T19:47:48.237Z,14.05
2022-08-27T19:52:51.562Z,13.80
2022-08-27T19:57:53.978Z,16.73
2022-08-27T20:02:56.890Z,20.02
2022-08-27T20:07:59.414Z,14.77
2022-08-27T20:13:01.858Z,12.65
2022-08-27T20:18:05.793Z,25.10
2022-08-27T20:23:08.651Z,12.05
2022-08-27T20:28:37.378Z,13.48
2022-08-27T20:33:34.295Z,15.20
2022-08-27T20:38:37.029Z,13.45
2022-08-27T20:43:39.700Z,41.95
2022-08-27T20:48:42.179Z,16.45
2022-08-27T20:53:44.791Z,12.32
2022-08-27T20:59:06.123Z,11.02
2022-08-27T21:04:08.605Z,11.75
2022-08-27T21:09:11.075Z,10.52
2022-08-27T21:14:16.045Z,16.13
2022-08-27T21:19:18.540Z,13.80
2022-08-27T21:24:21.283Z,13.02
2022-08-27T21:29:23.866Z,13.15
2022-08-27T21:34:28.270Z,18.70
2022-08-27T21:39:32.831Z,14.02
2022-08-27T21:44:36.025Z,19.10
2022-08-27T21:49:38.660Z,19.58
2022-08-27T21:54:42.225Z,19.95
2022-08-27T21:59:48.059Z,22.65
2022-08-27T22:04:51.540Z,18.80
2022-08-27T22:09:54.292Z,20.38
2022-08-27T22:14:56.768Z,20.65
2022-08-27T22:19:59.233Z,15.60
2022-08-27T22:25:01.640Z,19.95
2022-08-27T22:30:09.609Z,19.88
2022-08-27T22:35:15.138Z,22.00
2022-08-27T22:40:20.369Z,18.23
2022-08-27T22:45:23.081Z,22.00
2022-08-27T22:50:25.879Z,16.48
2022-08-27T22:55:28.794Z,20.42
2022-08-27T23:00:36.358Z,19.90
2022-08-27T23:05:41.388Z,19.05
2022-08-27T23:10:45.005Z,19.45
2022-08-27T23:15:47.568Z,16.30
2022-08-27T23:20:50.284Z,18.65
2022-08-27T23:26:11.258Z,21.67
2022-08-27T23:31:14.503Z,22.77
2022-08-27T23:36:16.991Z,18.85
2022-08-27T23:41:19.592Z,19.77
2022-08-27T23:46:22.017Z,19.58
2022-08-27T23:51:25.523Z,18.70
2022-08-27T23:56:30.177Z,22.88
